createdAt,value
2023-02-01T00:00:00.873Z,65.25
2023-02-01T00:00:14.149Z,65.32
2023-02-01T00:00:27.015Z,65.36
2023-02-01T00:00:39.952Z,65.29
2023-02-01T00:00:52.820Z,65.25
2023-02-01T00:01:09.325Z,65.18
2023-02-01T00:01:22.224Z,65.18
2023-02-01T00:01:35.152Z,65.21
2023-02-01T00:01:48.016Z,65.20
2023-02-01T00:02:01.085Z,65.25
2023-02-01T00:02:14.008Z,65.34
2023-02-01T00:02:26.910Z,65.38
2023-02-01T00:02:41.838Z,65.36
2023-02-01T00:02:54.754Z,65.30
2023-02-01T00:03:09.535Z,65.24
2023-02-01T00:03:22.428Z,65.36
2023-02-01T00:03:35.346Z,65.35
2023-02-01T00:03:48.392Z,65.30
2023-02-01T00:04:01.327Z,65.42
2023-02-01T00:04:14.174Z,65.33
2023-02-01T00:04:27.132Z,65.37
2023-02-01T00:04:40.051Z,65.34
2023-02-01T00:04:52.933Z,65.39
2023-02-01T00:05:06.716Z,65.39
2023-02-01T00:05:19.554Z,65.52
2023-02-01T00:05:32.428Z,65.51
2023-02-01T00:05:45.506Z,65.42
2023-02-01T00:05:59.225Z,65.32
2023-02-01T00:06:12.124Z,65.34
2023-02-01T00:06:25.065Z,65.43
2023-02-01T00:06:37.949Z,65.43
2023-02-01T00:06:50.872Z,65.49
2023-02-01T00:07:03.701Z,65.45
2023-02-01T00:07:16.652Z,65.55
2023-02-01T00:07:29.520Z,65.52
2023-02-01T00:07:42.365Z,65.50
2023-02-01T00:07:55.185Z,65.41
2023-02-01T00:08:08.106Z,65.34
2023-02-01T00:08:20.945Z,65.37
2023-02-01T00:08:33.918Z,65.33
2023-02-01T00:08:46.755Z,65.43
2023-02-01T00:08:59.608Z,65.39
2023-02-01T00:09:12.517Z,65.43
2023-02-01T00:09:25.334Z,65.46
2023-02-01T00:09:38.257Z,65.45
2023-02-01T00:09:51.088Z,65.51
2023-02-01T00:10:04.855Z,65.46
2023-02-01T00:10:17.927Z,65.53
2023-02-01T00:10:30.789Z,65.53
2023-02-01T00:10:43.562Z,65.46
2023-02-01T00:11:14.286Z,65.51
2023-02-01T00:12:05.724Z,65.66
2023-02-01T00:12:18.525Z,65.66
2023-02-01T00:12:51.250Z,65.65
2023-02-01T00:13:45.011Z,65.41
2023-02-01T00:14:18.240Z,65.37
2023-02-01T00:15:09.712Z,65.43
2023-02-01T00:15:42.438Z,65.65
2023-02-01T00:16:17.422Z,65.63
2023-02-01T00:16:51.389Z,65.63
2023-02-01T00:17:24.289Z,65.62
2023-02-01T00:18:15.379Z,65.68
2023-02-01T00:19:15.170Z,65.51
2023-02-01T00:19:47.767Z,65.41
2023-02-01T00:20:00.737Z,65.42
2023-02-01T00:20:13.550Z,65.37
2023-02-01T00:20:26.469Z,65.42
2023-02-01T00:20:39.330Z,65.43
2023-02-01T00:20:52.179Z,65.40
2023-02-01T00:21:05.411Z,65.42
2023-02-01T00:21:20.096Z,65.36
2023-02-01T00:21:33.040Z,65.42
2023-02-01T00:21:46.589Z,65.32
2023-02-01T00:22:02.330Z,65.29
2023-02-01T00:22:15.238Z,65.40
2023-02-01T00:22:28.092Z,65.44
2023-02-01T00:22:41.062Z,65.37
2023-02-01T00:22:53.877Z,65.39
2023-02-01T00:23:08.818Z,65.35
2023-02-01T00:23:21.681Z,65.33
2023-02-01T00:23:35.621Z,65.28
2023-02-01T00:23:48.435Z,65.31
2023-02-01T00:24:01.344Z,65.20
2023-02-01T00:24:14.189Z,65.20
2023-02-01T00:24:27.037Z,65.21
2023-02-01T00:24:39.899Z,65.24
2023-02-01T00:24:52.755Z,65.26
2023-02-01T00:25:06.030Z,65.25
2023-02-01T00:25:18.886Z,65.22
2023-02-01T00:25:32.775Z,65.28
2023-02-01T00:25:45.609Z,65.33
2023-02-01T00:26:01.646Z,65.26
2023-02-01T00:26:16.465Z,65.21
2023-02-01T00:26:43.167Z,65.20
2023-02-01T00:26:56.770Z,65.14
2023-02-01T00:27:09.571Z,65.14
2023-02-01T00:27:22.389Z,65.20
2023-02-01T00:27:35.228Z,65.12
2023-02-01T00:27:51.441Z,65.13
2023-02-01T00:28:04.281Z,65.19
2023-02-01T00:28:17.196Z,65.27
2023-02-01T00:28:30.126Z,65.32
2023-02-01T00:28:42.949Z,65.29
2023-02-01T00:28:55.815Z,65.35
2023-02-01T00:29:15.964Z,65.39
2023-02-01T00:29:28.595Z,65.34
2023-02-01T00:29:41.248Z,65.38
2023-02-01T00:29:56.135Z,65.46
2023-02-01T00:30:09.609Z,65.48
2023-02-01T00:30:22.723Z,65.54
2023-02-01T00:30:36.018Z,65.58
2023-02-01T00:30:56.770Z,65.57
2023-02-01T00:31:09.570Z,65.56
2023-02-01T00:31:22.373Z,65.60
2023-02-01T00:31:35.292Z,65.62
2023-02-01T00:31:50.396Z,65.49
2023-02-01T00:32:03.422Z,65.47
2023-02-01T00:32:16.343Z,65.52
2023-02-01T00:32:29.167Z,65.55
2023-02-01T00:32:42.060Z,65.47
2023-02-01T00:32:54.908Z,65.45
2023-02-01T00:33:07.836Z,65.49
2023-02-01T00:33:20.647Z,65.43
2023-02-01T00:33:33.746Z,65.43
2023-02-01T00:33:48.756Z,65.42
2023-02-01T00:34:01.570Z,65.32
2023-02-01T00:34:16.576Z,65.21
2023-02-01T00:34:29.389Z,65.19
2023-02-01T00:34:42.311Z,65.25
2023-02-01T00:34:55.123Z,65.23
2023-02-01T00:35:09.307Z,65.30
2023-02-01T00:35:22.119Z,65.36
2023-02-01T00:35:35.869Z,65.28
2023-02-01T00:35:48.685Z,65.09
2023-02-01T00:36:06.489Z,65.10
2023-02-01T00:36:19.177Z,65.15
2023-02-01T00:36:32.331Z,65.23
2023-02-01T00:36:45.511Z,65.30
2023-02-01T00:36:58.359Z,65.39
2023-02-01T00:37:11.204Z,65.37
2023-02-01T00:37:24.285Z,65.34
2023-02-01T00:37:37.155Z,65.26
2023-02-01T00:37:49.937Z,65.21
2023-02-01T00:38:02.846Z,65.23
2023-02-01T00:38:15.661Z,65.27
2023-02-01T00:38:29.017Z,65.22
2023-02-01T00:38:42.053Z,65.27
2023-02-01T00:38:54.913Z,65.32
2023-02-01T00:39:07.791Z,65.37
2023-02-01T00:39:20.604Z,65.39
2023-02-01T00:39:33.429Z,65.41
2023-02-01T00:39:46.279Z,65.44
2023-02-01T00:39:59.259Z,65.43
2023-02-01T00:40:12.481Z,65.38
2023-02-01T00:40:25.313Z,65.40
2023-02-01T00:40:38.151Z,65.45
2023-02-01T00:40:50.976Z,65.45
2023-02-01T00:41:08.399Z,65.37
2023-02-01T00:41:21.324Z,65.38
2023-02-01T00:41:33.974Z,65.41
2023-02-01T00:41:46.802Z,65.36
2023-02-01T00:42:01.176Z,65.40
2023-02-01T00:42:14.042Z,65.42
2023-02-01T00:42:26.893Z,65.40
2023-02-01T00:42:39.753Z,65.38
2023-02-01T00:42:53.036Z,65.38
2023-02-01T00:43:05.868Z,65.49
2023-02-01T00:43:18.714Z,65.51
2023-02-01T00:43:32.415Z,65.38
2023-02-01T00:43:45.326Z,65.49
2023-02-01T00:43:58.173Z,65.33
2023-02-01T00:44:11.109Z,65.25
2023-02-01T00:44:23.949Z,65.18
2023-02-01T00:44:36.903Z,65.16
2023-02-01T00:44:49.760Z,65.27
2023-02-01T00:45:02.581Z,65.37
2023-02-01T00:45:15.393Z,65.40
2023-02-01T00:45:28.222Z,65.46
2023-02-01T00:45:41.082Z,65.44
2023-02-01T00:45:53.912Z,65.34
2023-02-01T00:46:06.742Z,65.34
2023-02-01T00:46:20.782Z,65.32
2023-02-01T00:46:33.719Z,65.34
2023-02-01T00:46:46.583Z,65.33
2023-02-01T00:46:59.636Z,65.43
2023-02-01T00:47:12.431Z,65.50
2023-02-01T00:47:25.259Z,65.47
2023-02-01T00:47:38.213Z,65.44
2023-02-01T00:47:51.041Z,65.21
2023-02-01T00:48:03.986Z,65.15
2023-02-01T00:48:16.805Z,65.21
2023-02-01T00:48:29.667Z,65.17
2023-02-01T00:48:42.804Z,65.24
2023-02-01T00:48:55.707Z,65.15
2023-02-01T00:49:10.158Z,65.18
2023-02-01T00:49:23.047Z,65.15
2023-02-01T00:49:36.106Z,65.17
2023-02-01T00:49:48.925Z,65.02
2023-02-01T00:50:01.995Z,64.98
2023-02-01T00:50:15.021Z,64.93
2023-02-01T00:50:27.913Z,64.76
2023-02-01T00:50:44.173Z,64.79
2023-02-01T00:51:01.566Z,64.72
2023-02-01T00:51:18.163Z,64.74
2023-02-01T00:51:30.859Z,64.68
2023-02-01T00:51:44.124Z,64.53
2023-02-01T00:51:57.132Z,64.54
2023-02-01T00:52:09.980Z,64.58
2023-02-01T00:52:22.814Z,64.63
2023-02-01T00:52:35.627Z,64.64
2023-02-01T00:52:48.485Z,64.85
2023-02-01T00:53:01.311Z,64.98
2023-02-01T00:53:14.210Z,64.94
2023-02-01T00:53:27.084Z,64.93
2023-02-01T00:53:39.992Z,64.96
2023-02-01T00:53:52.895Z,64.99
2023-02-01T00:54:05.791Z,64.95
2023-02-01T00:54:18.605Z,64.92
2023-02-01T00:54:31.567Z,64.81
2023-02-01T00:54:44.383Z,64.85
2023-02-01T00:54:57.310Z,64.94
2023-02-01T00:55:10.193Z,65.02
2023-02-01T00:55:23.019Z,65.00
2023-02-01T00:55:35.846Z,65.17
2023-02-01T00:55:49.016Z,65.15
2023-02-01T00:56:01.956Z,65.12
2023-02-01T00:56:14.916Z,65.09
2023-02-01T00:56:30.471Z,65.11
2023-02-01T00:56:43.377Z,65.16
2023-02-01T00:56:56.235Z,65.04
2023-02-01T00:57:09.069Z,64.97
2023-02-01T00:57:21.914Z,65.00
2023-02-01T00:57:34.745Z,65.09
2023-02-01T00:57:47.635Z,65.19
2023-02-01T00:58:00.886Z,65.16
2023-02-01T00:58:13.719Z,65.08
2023-02-01T00:58:26.739Z,64.99
2023-02-01T00:58:39.673Z,64.94
2023-02-01T00:58:52.524Z,65.03
2023-02-01T00:59:05.370Z,65.02
2023-02-01T00:59:18.210Z,64.97
2023-02-01T00:59:31.075Z,65.01
2023-02-01T00:59:43.898Z,65.00
2023-02-01T00:59:56.738Z,65.05
2023-02-01T01:00:10.206Z,65.13
2023-02-01T01:00:23.564Z,65.12
2023-02-01T01:00:36.618Z,65.04
2023-02-01T01:00:50.491Z,65.00
2023-02-01T01:01:04.938Z,65.01
2023-02-01T01:01:27.999Z,64.93
2023-02-01T01:01:40.783Z,65.00
2023-02-01T01:01:53.542Z,65.17
2023-02-01T01:02:06.456Z,65.18
2023-02-01T01:02:19.383Z,65.03
2023-02-01T01:02:32.269Z,64.96
2023-02-01T01:02:45.090Z,65.08
2023-02-01T01:02:57.918Z,65.06
2023-02-01T01:03:19.572Z,65.11
2023-02-01T01:03:34.425Z,65.10
2023-02-01T01:03:51.899Z,65.00
2023-02-01T01:04:04.630Z,64.94
2023-02-01T01:04:17.864Z,64.93
2023-02-01T01:04:30.715Z,64.96
2023-02-01T01:04:43.541Z,64.87
2023-02-01T01:04:56.346Z,65.01
2023-02-01T01:05:09.211Z,65.05
2023-02-01T01:05:22.020Z,65.02
2023-02-01T01:05:34.846Z,65.05
2023-02-01T01:05:48.239Z,65.05
2023-02-01T01:06:02.544Z,65.06
2023-02-01T01:06:16.609Z,65.01
2023-02-01T01:06:31.267Z,64.98
2023-02-01T01:06:44.091Z,65.07
2023-02-01T01:06:59.438Z,65.08
2023-02-01T01:07:12.259Z,65.17
2023-02-01T01:07:25.093Z,65.24
2023-02-01T01:07:37.964Z,65.26
2023-02-01T01:07:50.818Z,65.21
2023-02-01T01:08:03.741Z,65.13
2023-02-01T01:08:16.825Z,65.04
2023-02-01T01:08:29.671Z,65.07
2023-02-01T01:08:42.678Z,65.03
2023-02-01T01:08:56.748Z,65.01
2023-02-01T01:09:10.181Z,64.86
2023-02-01T01:09:23.018Z,64.89
2023-02-01T01:09:35.878Z,64.92
2023-02-01T01:09:48.713Z,64.92
2023-02-01T01:10:01.580Z,64.87
2023-02-01T01:10:14.439Z,64.96
2023-02-01T01:10:27.275Z,65.00
2023-02-01T01:10:40.148Z,65.15
2023-02-01T01:10:53.032Z,65.31
2023-02-01T01:11:13.959Z,65.34
2023-02-01T01:11:27.411Z,65.30
2023-02-01T01:11:40.160Z,65.27
2023-02-01T01:11:53.758Z,65.26
2023-02-01T01:12:06.609Z,65.28
2023-02-01T01:12:20.806Z,65.34
2023-02-01T01:12:33.641Z,65.36
2023-02-01T01:12:46.458Z,65.42
2023-02-01T01:12:59.651Z,65.43
2023-02-01T01:13:12.484Z,65.38
2023-02-01T01:13:25.389Z,65.44
2023-02-01T01:13:38.265Z,65.41
2023-02-01T01:13:51.768Z,65.45
2023-02-01T01:14:04.792Z,65.44
2023-02-01T01:14:17.593Z,65.44
2023-02-01T01:14:31.071Z,65.43
2023-02-01T01:14:43.901Z,65.41
2023-02-01T01:14:56.779Z,65.34
2023-02-01T01:15:10.007Z,65.34
2023-02-01T01:15:22.839Z,65.41
2023-02-01T01:15:39.408Z,65.47
2023-02-01T01:15:52.386Z,65.39
2023-02-01T01:16:06.264Z,65.36
2023-02-01T01:16:19.439Z,65.28
2023-02-01T01:16:32.467Z,65.24
2023-02-01T01:16:45.286Z,65.22
2023-02-01T01:16:58.151Z,65.15
2023-02-01T01:17:10.964Z,65.10
2023-02-01T01:17:23.830Z,65.09
2023-02-01T01:17:36.899Z,65.03
2023-02-01T01:17:49.721Z,65.08
2023-02-01T01:18:02.562Z,65.13
2023-02-01T01:18:15.391Z,65.21
2023-02-01T01:18:28.472Z,65.24
2023-02-01T01:18:41.436Z,65.24
2023-02-01T01:18:54.623Z,65.21
2023-02-01T01:19:07.760Z,65.22
2023-02-01T01:19:20.582Z,65.35
2023-02-01T01:19:33.443Z,65.32
2023-02-01T01:19:46.297Z,65.34
2023-02-01T01:20:00.062Z,65.37
2023-02-01T01:20:13.351Z,65.36
2023-02-01T01:20:26.189Z,65.31
2023-02-01T01:20:40.116Z,65.28
2023-02-01T01:20:52.993Z,65.30
2023-02-01T01:21:06.648Z,65.11
2023-02-01T01:21:19.580Z,65.13
2023-02-01T01:21:32.469Z,65.17
2023-02-01T01:21:45.334Z,65.18
2023-02-01T01:21:58.207Z,65.16
2023-02-01T01:22:11.073Z,64.98
2023-02-01T01:22:23.926Z,64.89
2023-02-01T01:22:36.738Z,64.95
2023-02-01T01:22:49.577Z,64.88
2023-02-01T01:23:02.408Z,64.73
2023-02-01T01:23:15.221Z,64.65
2023-02-01T01:23:28.279Z,64.74
2023-02-01T01:23:41.205Z,64.84
2023-02-01T01:23:54.192Z,64.82
2023-02-01T01:24:07.045Z,64.86
2023-02-01T01:24:19.861Z,64.79
2023-02-01T01:24:32.695Z,64.83
2023-02-01T01:24:45.557Z,64.87
2023-02-01T01:24:58.362Z,64.94
2023-02-01T01:25:11.203Z,65.01
2023-02-01T01:25:24.037Z,64.99
2023-02-01T01:25:40.314Z,65.01
2023-02-01T01:25:53.273Z,65.01
2023-02-01T01:26:08.119Z,64.99
2023-02-01T01:26:23.659Z,64.96
2023-02-01T01:26:36.561Z,64.76
2023-02-01T01:26:49.447Z,64.69
2023-02-01T01:27:02.284Z,64.72
2023-02-01T01:27:15.246Z,64.68
2023-02-01T01:27:28.059Z,64.69
2023-02-01T01:27:40.960Z,64.72
2023-02-01T01:27:53.833Z,64.72
2023-02-01T01:28:06.918Z,64.70
2023-02-01T01:28:19.742Z,64.72
2023-02-01T01:28:32.574Z,64.78
2023-02-01T01:28:45.454Z,64.86
2023-02-01T01:28:58.948Z,64.93
2023-02-01T01:29:12.170Z,64.88
2023-02-01T01:29:25.262Z,64.94
2023-02-01T01:29:38.109Z,64.97
2023-02-01T01:29:51.313Z,65.01
2023-02-01T01:30:04.523Z,65.03
2023-02-01T01:30:17.688Z,64.86
2023-02-01T01:30:30.583Z,64.83
2023-02-01T01:30:43.631Z,64.87
2023-02-01T01:30:56.525Z,64.88
2023-02-01T01:31:10.935Z,64.92
2023-02-01T01:31:23.871Z,64.95
2023-02-01T01:31:36.800Z,64.98
2023-02-01T01:31:49.764Z,65.13
2023-02-01T01:32:02.696Z,65.18
2023-02-01T01:32:15.511Z,65.14
2023-02-01T01:32:28.410Z,65.13
2023-02-01T01:32:41.239Z,65.04
2023-02-01T01:32:54.062Z,65.01
2023-02-01T01:33:07.174Z,65.00
2023-02-01T01:33:20.007Z,64.96
2023-02-01T01:33:32.853Z,64.89
2023-02-01T01:33:48.111Z,64.93
2023-02-01T01:34:01.015Z,64.97
2023-02-01T01:34:13.888Z,65.02
2023-02-01T01:34:26.701Z,65.13
2023-02-01T01:34:39.561Z,65.05
2023-02-01T01:34:52.359Z,64.97
2023-02-01T01:35:05.596Z,64.89
2023-02-01T01:35:18.458Z,64.81
2023-02-01T01:35:33.103Z,64.88
2023-02-01T01:35:45.926Z,64.89
2023-02-01T01:35:58.746Z,64.96
2023-02-01T01:36:12.257Z,64.95
2023-02-01T01:36:25.321Z,65.05
2023-02-01T01:36:38.166Z,64.98
2023-02-01T01:36:50.982Z,64.95
2023-02-01T01:37:03.799Z,64.94
2023-02-01T01:37:16.623Z,64.92
2023-02-01T01:37:29.455Z,64.80
2023-02-01T01:37:42.296Z,64.74
2023-02-01T01:37:55.163Z,64.86
2023-02-01T01:38:08.008Z,64.96
2023-02-01T01:38:20.826Z,65.00
2023-02-01T01:38:33.712Z,64.88
2023-02-01T01:38:46.573Z,64.94
2023-02-01T01:38:59.406Z,65.00
2023-02-01T01:39:12.196Z,65.15
2023-02-01T01:39:25.089Z,65.19
2023-02-01T01:39:37.975Z,65.18
2023-02-01T01:39:50.782Z,65.02
2023-02-01T01:40:07.362Z,64.91
2023-02-01T01:40:20.570Z,64.71
2023-02-01T01:40:33.605Z,64.70
2023-02-01T01:40:47.433Z,64.75
2023-02-01T01:41:00.302Z,64.82
2023-02-01T01:41:15.520Z,64.90
2023-02-01T01:41:31.837Z,64.93
2023-02-01T01:41:44.791Z,64.92
2023-02-01T01:41:57.628Z,64.83
2023-02-01T01:42:13.444Z,64.78
2023-02-01T01:42:26.324Z,64.67
2023-02-01T01:42:42.836Z,64.73
2023-02-01T01:42:56.230Z,64.69
2023-02-01T01:43:15.880Z,64.77
2023-02-01T01:43:45.441Z,64.73
2023-02-01T01:44:04.421Z,64.83
2023-02-01T01:44:35.399Z,64.84
2023-02-01T01:45:01.934Z,64.83
2023-02-01T01:45:35.041Z,65.12
2023-02-01T01:46:07.630Z,65.28
2023-02-01T01:46:41.946Z,65.34
2023-02-01T01:47:15.493Z,65.47
2023-02-01T01:47:49.578Z,65.52
2023-02-01T01:48:42.537Z,65.37
2023-02-01T01:49:16.157Z,65.18
2023-02-01T01:50:08.237Z,65.19
2023-02-01T01:50:43.777Z,65.38
2023-02-01T01:51:06.060Z,65.40
2023-02-01T01:51:57.987Z,65.34
2023-02-01T01:52:30.563Z,65.45
2023-02-01T01:53:05.306Z,65.25
2023-02-01T01:54:22.386Z,65.14
2023-02-01T01:54:54.901Z,65.15
2023-02-01T01:55:27.762Z,65.18
2023-02-01T01:56:18.861Z,65.26
2023-02-01T01:56:54.322Z,65.18
2023-02-01T01:57:31.078Z,65.30
2023-02-01T01:58:09.331Z,65.34
2023-02-01T01:58:41.903Z,65.42
2023-02-01T01:59:14.541Z,65.33
2023-02-01T01:59:48.120Z,65.10
2023-02-01T02:00:21.122Z,64.97
2023-02-01T02:00:53.386Z,65.07
2023-02-01T02:01:25.950Z,65.21
2023-02-01T02:01:58.469Z,65.11
2023-02-01T02:02:31.370Z,65.26
2023-02-01T02:03:24.325Z,65.37
2023-02-01T02:03:57.002Z,65.18
2023-02-01T02:04:29.701Z,64.93
2023-02-01T02:05:02.249Z,65.06
2023-02-01T02:05:16.245Z,65.04
2023-02-01T02:05:51.915Z,64.92
2023-02-01T02:06:35.809Z,64.86
2023-02-01T02:07:09.667Z,65.02
2023-02-01T02:08:02.244Z,65.06
2023-02-01T02:08:35.150Z,65.10
2023-02-01T02:09:08.113Z,65.13
2023-02-01T02:10:01.358Z,64.97
2023-02-01T02:10:51.283Z,65.18
2023-02-01T02:11:23.859Z,65.31
2023-02-01T02:11:36.645Z,65.21
2023-02-01T02:12:09.165Z,65.26
2023-02-01T02:12:42.789Z,65.16
2023-02-01T02:13:42.520Z,64.96
2023-02-01T02:14:16.049Z,65.17
2023-02-01T02:14:48.928Z,65.12
2023-02-01T02:15:21.549Z,65.33
2023-02-01T02:16:28.172Z,65.45
2023-02-01T02:17:31.075Z,65.38
2023-02-01T02:18:32.547Z,65.74
2023-02-01T02:19:35.853Z,65.77
2023-02-01T02:20:46.082Z,65.91
2023-02-01T02:21:25.732Z,65.68
2023-02-01T03:01:44.512Z,66.30
2023-02-01T03:02:54.869Z,66.24
2023-02-01T03:03:46.485Z,66.36
2023-02-01T03:04:22.210Z,66.37
2023-02-01T03:04:58.664Z,66.41
2023-02-01T03:05:35.843Z,66.53
2023-02-01T03:06:16.955Z,66.18
2023-02-01T03:06:50.761Z,65.90
2023-02-01T03:07:45.296Z,65.98
2023-02-01T03:08:38.553Z,65.73
2023-02-01T03:09:40.169Z,66.00
2023-02-01T03:10:19.141Z,65.98
2023-02-01T03:11:08.646Z,66.25
2023-02-01T03:11:21.889Z,66.02
2023-02-01T03:11:53.163Z,66.19
2023-02-01T03:12:30.977Z,66.23
2023-02-01T03:12:59.291Z,66.33
2023-02-01T03:13:19.556Z,66.15
2023-02-01T03:13:34.576Z,65.99
2023-02-01T03:13:47.187Z,66.12
2023-02-01T03:14:01.608Z,66.29
2023-02-01T03:14:14.874Z,66.31
2023-02-01T03:14:27.769Z,66.14
2023-02-01T03:14:40.721Z,66.07
2023-02-01T03:14:57.725Z,65.94
2023-02-01T03:15:11.562Z,65.87
2023-02-01T03:15:37.110Z,65.98
2023-02-01T03:15:52.135Z,66.00
2023-02-01T03:16:10.932Z,66.06
2023-02-01T03:16:33.052Z,66.14
2023-02-01T03:16:59.329Z,66.08
2023-02-01T03:17:14.793Z,66.00
2023-02-01T03:17:31.590Z,66.06
2023-02-01T03:17:44.497Z,66.11
2023-02-01T03:17:57.303Z,66.11
2023-02-01T03:18:54.797Z,66.20
2023-02-01T03:19:59.070Z,66.11
2023-02-01T03:20:31.607Z,66.19
2023-02-01T03:21:07.438Z,65.90
2023-02-01T03:21:46.313Z,65.83
2023-02-01T03:22:23.529Z,65.87
2023-02-01T03:22:56.291Z,65.67
2023-02-01T03:23:31.124Z,65.69
2023-02-01T03:24:16.401Z,65.55
2023-02-01T03:24:54.086Z,65.59
2023-02-01T03:25:45.624Z,65.66
2023-02-01T03:26:39.301Z,65.68
2023-02-01T03:26:56.314Z,65.79
2023-02-01T03:27:29.952Z,65.70
2023-02-01T03:28:07.639Z,65.64
2023-02-01T03:29:11.469Z,65.61
2023-02-01T03:30:12.790Z,65.63
2023-02-01T03:31:04.266Z,65.80
2023-02-01T03:31:56.169Z,65.65
2023-02-01T03:32:28.828Z,65.60
2023-02-01T03:33:00.393Z,65.68
2023-02-01T03:33:33.095Z,65.71
2023-02-01T03:33:45.962Z,65.96
2023-02-01T03:33:59.706Z,65.98
2023-02-01T03:34:50.970Z,66.01
2023-02-01T03:35:30.977Z,65.77
2023-02-01T03:36:27.534Z,65.96
2023-02-01T03:37:00.975Z,66.04
2023-02-01T03:37:33.538Z,65.92
2023-02-01T03:38:19.410Z,65.89
2023-02-01T03:39:14.365Z,65.77
2023-02-01T03:39:41.338Z,65.84
2023-02-01T03:40:01.533Z,65.82
2023-02-01T03:40:14.454Z,65.82
2023-02-01T03:40:27.298Z,65.86
2023-02-01T03:40:40.144Z,65.97
2023-02-01T03:41:17.315Z,65.99
2023-02-01T03:41:37.181Z,65.95
2023-02-01T03:41:54.988Z,65.91
2023-02-01T03:42:28.034Z,65.99
2023-02-01T03:42:45.076Z,65.92
2023-02-01T03:42:57.720Z,66.00
2023-02-01T03:43:11.600Z,65.97
2023-02-01T03:43:24.574Z,65.72
2023-02-01T03:43:47.258Z,65.61
2023-02-01T03:44:02.554Z,65.79
2023-02-01T03:44:16.752Z,65.68
2023-02-01T03:44:36.106Z,65.68
2023-02-01T03:44:58.980Z,65.90
2023-02-01T03:45:25.584Z,65.89
2023-02-01T03:45:42.619Z,65.74
2023-02-01T03:45:58.621Z,65.73
2023-02-01T03:46:13.825Z,65.78
2023-02-01T03:46:41.582Z,65.74
2023-02-01T03:46:59.428Z,65.96
2023-02-01T03:47:15.928Z,66.02
2023-02-01T03:47:30.335Z,66.11
2023-02-01T03:47:44.764Z,65.88
2023-02-01T03:47:58.382Z,65.92
2023-02-01T03:48:11.788Z,65.77
2023-02-01T03:48:24.656Z,65.63
2023-02-01T03:48:37.539Z,65.68
2023-02-01T03:48:51.122Z,65.68
2023-02-01T03:49:06.603Z,65.67
2023-02-01T03:49:44.369Z,65.68
2023-02-01T03:49:58.872Z,65.80
2023-02-01T03:50:13.672Z,65.70
2023-02-01T03:50:26.494Z,65.71
2023-02-01T03:50:40.233Z,65.73
2023-02-01T03:50:54.507Z,65.73
2023-02-01T03:51:07.338Z,65.79
2023-02-01T03:51:20.715Z,65.62
2023-02-01T03:51:33.657Z,65.51
2023-02-01T03:51:46.509Z,65.64
2023-02-01T03:52:00.217Z,65.66
2023-02-01T03:52:21.428Z,65.73
2023-02-01T03:52:43.552Z,65.71
2023-02-01T03:53:08.292Z,65.77
2023-02-01T03:53:21.898Z,65.79
2023-02-01T03:53:34.350Z,65.86
2023-02-01T03:53:48.307Z,65.91
2023-02-01T03:54:01.142Z,65.94
2023-02-01T03:54:14.872Z,65.79
2023-02-01T03:54:28.622Z,65.89
2023-02-01T03:54:41.639Z,65.91
2023-02-01T03:54:54.487Z,65.92
2023-02-01T03:55:07.826Z,65.99
2023-02-01T03:55:23.750Z,65.91
2023-02-01T03:55:36.652Z,65.88
2023-02-01T03:55:49.483Z,65.82
2023-02-01T03:56:02.292Z,65.81
2023-02-01T03:56:15.727Z,65.73
2023-02-01T03:56:28.598Z,65.71
2023-02-01T03:56:45.137Z,65.82
2023-02-01T03:57:00.234Z,65.95
2023-02-01T03:57:15.113Z,65.94
2023-02-01T03:57:30.845Z,65.97
2023-02-01T03:57:49.736Z,66.00
2023-02-01T03:58:09.767Z,65.89
2023-02-01T03:58:23.455Z,65.91
2023-02-01T03:58:36.500Z,65.87
2023-02-01T03:58:59.985Z,65.87
2023-02-01T03:59:13.243Z,65.89
2023-02-01T03:59:25.968Z,65.80
2023-02-01T03:59:43.856Z,65.82
2023-02-01T03:59:56.666Z,65.80
2023-02-01T04:00:19.440Z,65.81
2023-02-01T04:00:32.324Z,65.82
2023-02-01T04:00:54.780Z,65.88
2023-02-01T04:01:08.024Z,65.91
2023-02-01T04:01:20.886Z,65.84
2023-02-01T04:01:33.838Z,65.84
2023-02-01T04:01:46.792Z,65.90
2023-02-01T04:01:59.630Z,65.93
2023-02-01T04:02:12.619Z,65.91
2023-02-01T04:02:25.530Z,65.88
2023-02-01T04:02:38.462Z,65.80
2023-02-01T04:02:51.826Z,65.76
2023-02-01T04:03:05.278Z,65.79
2023-02-01T04:03:18.106Z,65.76
2023-02-01T04:03:31.133Z,65.66
2023-02-01T04:03:43.967Z,65.61
2023-02-01T04:03:57.315Z,65.69
2023-02-01T04:04:10.576Z,65.81
2023-02-01T04:04:23.444Z,65.95
2023-02-01T04:04:36.401Z,66.04
2023-02-01T04:04:49.214Z,66.14
2023-02-01T04:05:02.022Z,66.10
2023-02-01T04:05:14.876Z,66.03
2023-02-01T04:05:27.716Z,66.05
2023-02-01T04:05:40.552Z,66.03
2023-02-01T04:05:53.538Z,65.91
2023-02-01T04:06:06.608Z,65.80
2023-02-01T04:06:19.435Z,65.79
2023-02-01T04:06:32.287Z,65.78
2023-02-01T04:06:45.150Z,65.80
2023-02-01T04:06:57.986Z,65.83
2023-02-01T04:07:10.869Z,65.78
2023-02-01T04:07:23.689Z,65.79
2023-02-01T04:07:36.523Z,65.71
2023-02-01T04:07:49.354Z,65.68
2023-02-01T04:08:02.185Z,65.61
2023-02-01T04:08:15.089Z,65.61
2023-02-01T04:08:27.930Z,65.63
2023-02-01T04:08:40.785Z,65.56
2023-02-01T04:08:53.693Z,65.59
2023-02-01T04:09:06.553Z,65.61
2023-02-01T04:09:19.381Z,65.42
2023-02-01T04:09:32.259Z,65.36
2023-02-01T04:09:45.122Z,65.25
2023-02-01T04:09:57.988Z,65.33
2023-02-01T04:10:11.160Z,65.32
2023-02-01T04:10:24.408Z,65.40
2023-02-01T04:10:37.435Z,65.39
2023-02-01T04:10:50.302Z,65.41
2023-02-01T04:11:03.236Z,65.58
2023-02-01T04:11:16.275Z,65.51
2023-02-01T04:11:30.153Z,65.50
2023-02-01T04:11:43.303Z,65.52
2023-02-01T04:11:56.154Z,65.60
2023-02-01T04:12:08.994Z,65.67
2023-02-01T04:12:21.817Z,65.67
2023-02-01T04:12:34.663Z,65.77
2023-02-01T04:12:47.470Z,65.83
2023-02-01T04:13:00.273Z,65.81
2023-02-01T04:13:13.195Z,65.77
2023-02-01T04:13:26.042Z,65.64
2023-02-01T04:13:38.877Z,65.60
2023-02-01T04:13:51.719Z,65.61
2023-02-01T04:14:05.553Z,65.66
2023-02-01T04:14:18.546Z,65.69
2023-02-01T04:14:31.401Z,65.81
2023-02-01T04:14:44.304Z,65.78
2023-02-01T04:14:57.290Z,65.78
2023-02-01T04:15:10.537Z,65.77
2023-02-01T04:15:23.342Z,65.69
2023-02-01T04:15:36.201Z,65.77
2023-02-01T04:15:50.851Z,65.95
2023-02-01T04:16:03.740Z,65.90
2023-02-01T04:16:16.603Z,65.82
2023-02-01T04:16:29.451Z,65.98
2023-02-01T04:16:42.483Z,65.97
2023-02-01T04:16:55.461Z,65.93
2023-02-01T04:17:08.345Z,65.95
2023-02-01T04:17:21.160Z,65.88
2023-02-01T04:17:55.960Z,65.95
2023-02-01T04:18:08.764Z,65.97
2023-02-01T04:18:41.430Z,65.84
2023-02-01T04:19:13.997Z,65.70
2023-02-01T04:20:05.813Z,65.75
2023-02-01T04:20:38.562Z,65.92
2023-02-01T04:21:11.087Z,65.90
2023-02-01T04:22:18.432Z,65.95
2023-02-01T04:22:50.960Z,65.93
2023-02-01T04:23:25.135Z,66.05
2023-02-01T04:23:57.732Z,65.83
2023-02-01T04:24:30.291Z,65.87
2023-02-01T04:25:03.049Z,65.80
2023-02-01T04:25:35.583Z,65.62
2023-02-01T04:26:08.153Z,65.65
2023-02-01T04:26:59.232Z,65.72
2023-02-01T04:28:08.428Z,65.86
2023-02-01T04:28:41.174Z,65.40
2023-02-01T04:29:13.746Z,65.38
2023-02-01T04:29:46.336Z,65.64
2023-02-01T04:30:38.197Z,65.70
2023-02-01T04:30:51.171Z,65.71
2023-02-01T04:31:28.884Z,65.68
2023-02-01T04:32:01.531Z,65.80
2023-02-01T04:32:52.814Z,65.85
2023-02-01T04:33:08.649Z,65.68
2023-02-01T04:33:41.493Z,65.75
2023-02-01T04:34:14.262Z,65.68
2023-02-01T04:35:06.711Z,65.82
2023-02-01T04:35:39.487Z,65.85
2023-02-01T04:36:12.256Z,65.97
2023-02-01T04:37:14.674Z,66.06
2023-02-01T04:37:47.445Z,65.77
2023-02-01T04:38:38.538Z,65.74
2023-02-01T04:39:11.321Z,65.57
2023-02-01T04:39:44.153Z,65.91
2023-02-01T04:40:49.673Z,65.96
2023-02-01T04:41:23.810Z,65.99
2023-02-01T04:41:56.593Z,66.04
2023-02-01T04:42:29.316Z,66.03
2023-02-01T04:43:20.448Z,65.84
2023-02-01T04:43:53.582Z,65.87
2023-02-01T04:44:26.364Z,65.83
2023-02-01T04:44:59.142Z,66.14
2023-02-01T04:45:31.943Z,66.08
2023-02-01T04:46:23.608Z,66.08
2023-02-01T04:46:56.299Z,66.04
2023-02-01T04:47:29.036Z,66.12
2023-02-01T04:48:01.760Z,65.98
2023-02-01T04:48:34.502Z,65.93
2023-02-01T04:49:07.235Z,65.85
2023-02-01T04:49:21.111Z,65.65
2023-02-01T04:49:53.863Z,65.76
2023-02-01T04:50:08.612Z,65.82
2023-02-01T04:50:21.902Z,65.80
2023-02-01T04:50:34.973Z,65.91